sensor_id;sensor_type;location;lat;lon;timestamp;pressure;altitude;pressure_sealevel;temperature;humidity
12987;BME280;58897;51.960;5.582;2024-01-11T00:00:31;102977.09;;;-3.45;100.00
12987;BME280;58897;51.960;5.582;2024-01-11T00:02:58;102978.72;;;-3.38;100.00
12987;BME280;58897;51.960;5.582;2024-01-11T00:05:24;102980.56;;;-3.42;100.00
12987;BME280;58897;51.960;5.582;2024-01-11T00:07:51;102979.72;;;-3.45;100.00
12987;BME280;58897;51.960;5.582;2024-01-11T00:10:19;102983.31;;;-3.51;100.00
12987;BME280;58897;51.960;5.582;2024-01-11T00:12:46;102985.19;;;-3.59;100.00
12987;BME280;58897;51.960;5.582;2024-01-11T00:15:13;102979.22;;;-3.71;100.00
12987;BME280;58897;51.960;5.582;2024-01-11T00:17:40;102984.22;;;-3.52;100.00
12987;BME280;58897;51.960;5.582;2024-01-11T00:20:07;102992.91;;;-3.42;100.00
12987;BME280;58897;51.960;5.582;2024-01-11T00:22:34;102985.06;;;-3.48;100.00
12987;BME280;58897;51.960;5.582;2024-01-11T00:25:01;102994.84;;;-3.56;100.00
12987;BME280;58897;51.960;5.582;2024-01-11T00:27:27;102986.19;;;-3.67;100.00
12987;BME280;58897;51.960;5.582;2024-01-11T00:29:54;102984.31;;;-3.59;100.00
12987;BME280;58897;51.960;5.582;2024-01-11T00:32:20;102983.50;;;-3.64;100.00
12987;BME280;58897;51.960;5.582;2024-01-11T00:34:47;102977.28;;;-3.59;100.00
12987;BME280;58897;51.960;5.582;2024-01-11T00:37:16;102980.88;;;-3.64;100.00
12987;BME280;58897;51.960;5.582;2024-01-11T00:39:43;102979.16;;;-3.65;100.00
12987;BME280;58897;51.960;5.582;2024-01-11T00:42:10;102984.50;;;-3.71;100.00
12987;BME280;58897;51.960;5.582;2024-01-11T00:44:36;102985.34;;;-3.69;100.00
12987;BME280;58897;51.960;5.582;2024-01-11T00:47:03;102980.91;;;-3.67;100.00
12987;BME280;58897;51.960;5.582;2024-01-11T00:49:30;102988.09;;;-3.76;100.00
12987;BME280;58897;51.960;5.582;2024-01-11T00:51:57;102983.69;;;-3.77;100.00
12987;BME280;58897;51.960;5.582;2024-01-11T00:54:23;102987.28;;;-3.82;100.00
12987;BME280;58897;51.960;5.582;2024-01-11T00:56:51;102981.19;;;-3.87;100.00
12987;BME280;58897;51.960;5.582;2024-01-11T00:59:18;102989.97;;;-3.85;100.00
12987;BME280;58897;51.960;5.582;2024-01-11T01:01:49;102987.50;;;-3.97;100.00
12987;BME280;58897;51.960;5.582;2024-01-11T01:04:16;102986.56;;;-3.95;100.00
12987;BME280;58897;51.960;5.582;2024-01-11T01:06:43;102985.72;;;-3.98;100.00
12987;BME280;58897;51.960;5.582;2024-01-11T01:09:10;102993.44;;;-3.83;100.00
12987;BME280;58897;51.960;5.582;2024-01-11T01:11:36;102996.19;;;-3.91;100.00
12987;BME280;58897;51.960;5.582;2024-01-11T01:14:04;102997.16;;;-3.98;100.00
12987;BME280;58897;51.960;5.582;2024-01-11T01:16:31;102992.97;;;-4.14;100.00
12987;BME280;58897;51.960;5.582;2024-01-11T01:18:57;102995.63;;;-4.15;100.00
12987;BME280;58897;51.960;5.582;2024-01-11T01:21:25;102990.31;;;-4.12;100.00
12987;BME280;58897;51.960;5.582;2024-01-11T01:23:51;102986.91;;;-4.20;100.00
12987;BME280;58897;51.960;5.582;2024-01-11T01:26:18;102994.72;;;-4.14;100.00
12987;BME280;58897;51.960;5.582;2024-01-11T01:28:45;103003.47;;;-4.08;100.00
12987;BME280;58897;51.960;5.582;2024-01-11T01:31:12;102998.34;;;-4.21;100.00
12987;BME280;58897;51.960;5.582;2024-01-11T01:33:40;102996.63;;;-4.27;100.00
12987;BME280;58897;51.960;5.582;2024-01-11T01:36:10;102989.59;;;-4.25;100.00
12987;BME280;58897;51.960;5.582;2024-01-11T01:38:37;102986.06;;;-4.22;100.00
12987;BME280;58897;51.960;5.582;2024-01-11T01:41:04;102999.31;;;-4.30;100.00
12987;BME280;58897;51.960;5.582;2024-01-11T01:43:31;103001.91;;;-4.25;100.00
12987;BME280;58897;51.960;5.582;2024-01-11T01:45:58;103005.34;;;-4.19;100.00
12987;BME280;58897;51.960;5.582;2024-01-11T01:48:25;103008.94;;;-4.24;100.00
12987;BME280;58897;51.960;5.582;2024-01-11T01:50:53;103004.63;;;-4.31;100.00
12987;BME280;58897;51.960;5.582;2024-01-11T01:53:22;103009.06;;;-4.37;100.00
12987;BME280;58897;51.960;5.582;2024-01-11T01:55:52;103011.69;;;-4.33;100.00
12987;BME280;58897;51.960;5.582;2024-01-11T01:58:20;103006.47;;;-4.40;100.00
12987;BME280;58897;51.960;5.582;2024-01-11T02:00:49;103019.81;;;-4.56;100.00
12987;BME280;58897;51.960;5.582;2024-01-11T02:03:17;103019.78;;;-4.53;100.00
12987;BME280;58897;51.960;5.582;2024-01-11T02:05:45;103020.63;;;-4.47;100.00
12987;BME280;58897;51.960;5.582;2024-01-11T02:08:15;103022.25;;;-4.33;100.00
12987;BME280;58897;51.960;5.582;2024-01-11T02:10:44;103017.03;;;-4.41;100.00
12987;BME280;58897;51.960;5.582;2024-01-11T02:13:12;103018.97;;;-4.57;100.00
12987;BME280;58897;51.960;5.582;2024-01-11T02:15:39;103018.03;;;-4.51;100.00
12987;BME280;58897;51.960;5.582;2024-01-11T02:18:06;103019.63;;;-4.37;100.00
12987;BME280;58897;51.960;5.582;2024-01-11T02:20:34;103017.78;;;-4.30;100.00
12987;BME280;58897;51.960;5.582;2024-01-11T02:23:06;103017.91;;;-4.42;100.00
12987;BME280;58897;51.960;5.582;2024-01-11T02:25:34;103007.25;;;-4.31;100.00
12987;BME280;58897;51.960;5.582;2024-01-11T02:28:01;103020.59;;;-4.48;100.00
12987;BME280;58897;51.960;5.582;2024-01-11T02:30:28;103019.72;;;-4.44;100.00
12987;BME280;58897;51.960;5.582;2024-01-11T02:32:55;103025.00;;;-4.47;100.00
12987;BME280;58897;51.960;5.582;2024-01-11T02:35:22;103016.22;;;-4.48;100.00
12987;BME280;58897;51.960;5.582;2024-01-11T02:37:51;103020.75;;;-4.63;100.00
12987;BME280;58897;51.960;5.582;2024-01-11T02:40:19;103026.91;;;-4.60;100.00
12987;BME280;58897;51.960;5.582;2024-01-11T02:42:46;103026.06;;;-4.66;100.00
12987;BME280;58897;51.960;5.582;2024-01-11T02:45:13;103025.16;;;-4.62;100.00
12987;BME280;58897;51.960;5.582;2024-01-11T02:47:40;103017.25;;;-4.64;100.00
12987;BME280;58897;51.960;5.582;2024-01-11T02:50:07;103019.03;;;-4.66;100.00
12987;BME280;58897;51.960;5.582;2024-01-11T02:52:35;103013.78;;;-4.69;100.00
12987;BME280;58897;51.960;5.582;2024-01-11T02:55:01;103014.66;;;-4.67;100.00
12987;BME280;58897;51.960;5.582;2024-01-11T02:57:28;103007.75;;;-4.80;100.00
12987;BME280;58897;51.960;5.582;2024-01-11T02:59:55;103006.09;;;-4.91;100.00
12987;BME280;58897;51.960;5.582;2024-01-11T03:02:22;103011.34;;;-4.88;100.00
12987;BME280;58897;51.960;5.582;2024-01-11T03:04:49;103004.31;;;-4.91;100.00
12987;BME280;58897;51.960;5.582;2024-01-11T03:07:16;103002.53;;;-4.86;100.00
12987;BME280;58897;51.960;5.582;2024-01-11T03:09:43;102997.22;;;-4.80;100.00
12987;BME280;58897;51.960;5.582;2024-01-11T03:12:09;102995.50;;;-4.90;100.00
12987;BME280;58897;51.960;5.582;2024-01-11T03:14:36;103001.66;;;-4.85;100.00
12987;BME280;58897;51.960;5.582;2024-01-11T03:17:03;102995.50;;;-4.85;100.00
12987;BME280;58897;51.960;5.582;2024-01-11T03:19:31;102994.59;;;-4.84;100.00
12987;BME280;58897;51.960;5.582;2024-01-11T03:21:57;102994.56;;;-4.81;100.00
12987;BME280;58897;51.960;5.582;2024-01-11T03:24:24;103006.03;;;-4.82;100.00
12987;BME280;58897;51.960;5.582;2024-01-11T03:26:51;103010.44;;;-4.87;100.00
12987;BME280;58897;51.960;5.582;2024-01-11T03:29:18;103013.94;;;-4.84;100.00
12987;BME280;58897;51.960;5.582;2024-01-11T03:31:44;103014.78;;;-4.80;100.00
12987;BME280;58897;51.960;5.582;2024-01-11T03:34:12;103034.16;;;-4.87;100.00
12987;BME280;58897;51.960;5.582;2024-01-11T03:36:39;103037.75;;;-4.97;100.00
12987;BME280;58897;51.960;5.582;2024-01-11T03:39:06;103034.31;;;-5.07;100.00
12987;BME280;58897;51.960;5.582;2024-01-11T03:41:33;103034.31;;;-5.06;100.00
12987;BME280;58897;51.960;5.582;2024-01-11T03:44:00;103026.38;;;-5.03;100.00
12987;BME280;58897;51.960;5.582;2024-01-11T03:46:27;103036.00;;;-4.97;100.00
12987;BME280;58897;51.960;5.582;2024-01-11T03:48:54;103031.53;;;-4.87;100.00
12987;BME280;58897;51.960;5.582;2024-01-11T03:51:22;103033.47;;;-5.06;100.00
12987;BME280;58897;51.960;5.582;2024-01-11T03:53:49;103026.38;;;-5.00;100.00
12987;BME280;58897;51.960;5.582;2024-01-11T03:56:16;103027.28;;;-5.01;100.00
12987;BME280;58897;51.960;5.582;2024-01-11T03:58:43;103029.84;;;-4.97;100.00
12987;BME280;58897;51.960;5.582;2024-01-11T04:01:11;103021.03;;;-4.92;100.00
12987;BME280;58897;51.960;5.582;2024-01-11T04:03:38;103022.03;;;-5.08;100.00
12987;BME280;58897;51.960;5.582;2024-01-11T04:06:06;103012.38;;;-5.08;100.00
12987;BME280;58897;51.960;5.582;2024-01-11T04:08:33;103013.16;;;-4.96;100.00
12987;BME280;58897;51.960;5.582;2024-01-11T04:11:03;103024.72;;;-5.14;100.00
12987;BME280;58897;51.960;5.582;2024-01-11T04:13:33;103037.81;;;-5.05;100.00
12987;BME280;58897;51.960;5.582;2024-01-11T04:16:04;103054.41;;;-4.91;100.00
12987;BME280;58897;51.960;5.582;2024-01-11T04:18:31;103054.44;;;-4.94;100.00
12987;BME280;58897;51.960;5.582;2024-01-11T04:20:58;103043.13;;;-5.10;100.00
12987;BME280;58897;51.960;5.582;2024-01-11T04:23:25;103032.63;;;-5.19;100.00
12987;BME280;58897;51.960;5.582;2024-01-11T04:25:52;103052.75;;;-5.06;100.00
12987;BME280;58897;51.960;5.582;2024-01-11T04:28:19;103049.31;;;-5.12;100.00
12987;BME280;58897;51.960;5.582;2024-01-11T04:30:45;103041.34;;;-5.05;100.00
12987;BME280;58897;51.960;5.582;2024-01-11T04:33:12;103056.34;;;-5.16;100.00
12987;BME280;58897;51.960;5.582;2024-01-11T04:35:39;103054.50;;;-5.03;100.00
12987;BME280;58897;51.960;5.582;2024-01-11T04:38:06;103048.38;;;-5.05;100.00
12987;BME280;58897;51.960;5.582;2024-01-11T04:40:33;103058.13;;;-5.21;100.00
12987;BME280;58897;51.960;5.582;2024-01-11T04:42:59;103068.69;;;-5.22;100.00
12987;BME280;58897;51.960;5.582;2024-01-11T04:45:26;103068.72;;;-5.28;100.00
12987;BME280;58897;51.960;5.582;2024-01-11T04:47:53;103064.44;;;-5.43;100.00
12987;BME280;58897;51.960;5.582;2024-01-11T04:50:21;103083.66;;;-5.32;100.00
12987;BME280;58897;51.960;5.582;2024-01-11T04:52:49;103081.91;;;-5.27;100.00
12987;BME280;58897;51.960;5.582;2024-01-11T04:55:15;103074.91;;;-5.37;100.00
12987;BME280;58897;51.960;5.582;2024-01-11T04:57:42;103075.75;;;-5.26;100.00
12987;BME280;58897;51.960;5.582;2024-01-11T05:00:09;103085.50;;;-5.44;100.00
12987;BME280;58897;51.960;5.582;2024-01-11T05:02:37;103077.56;;;-5.37;100.00
12987;BME280;58897;51.960;5.582;2024-01-11T05:05:04;103081.00;;;-5.26;100.00
12987;BME280;58897;51.960;5.582;2024-01-11T05:07:32;103081.97;;;-5.37;100.00
12987;BME280;58897;51.960;5.582;2024-01-11T05:10:01;103067.91;;;-5.36;100.00
12987;BME280;58897;51.960;5.582;2024-01-11T05:12:28;103063.53;;;-5.40;100.00
12987;BME280;58897;51.960;5.582;2024-01-11T05:14:56;103073.19;;;-5.41;100.00
12987;BME280;58897;51.960;5.582;2024-01-11T05:17:23;103060.84;;;-5.27;100.00
12987;BME280;58897;51.960;5.582;2024-01-11T05:19:56;103067.97;;;-5.50;100.00
12987;BME280;58897;51.960;5.582;2024-01-11T05:22:27;103070.63;;;-5.51;100.00
12987;BME280;58897;51.960;5.582;2024-01-11T05:24:54;103067.97;;;-5.48;100.00
12987;BME280;58897;51.960;5.582;2024-01-11T05:27:24;103060.09;;;-5.57;100.00
12987;BME280;58897;51.960;5.582;2024-01-11T05:29:52;103061.81;;;-5.49;100.00
12987;BME280;58897;51.960;5.582;2024-01-11T05:32:19;103060.94;;;-5.52;100.00
12987;BME280;58897;51.960;5.582;2024-01-11T05:34:46;103080.25;;;-5.49;100.00
12987;BME280;58897;51.960;5.582;2024-01-11T05:37:16;103074.03;;;-5.34;100.00
12987;BME280;58897;51.960;5.582;2024-01-11T05:39:44;103070.59;;;-5.50;100.00
12987;BME280;58897;51.960;5.582;2024-01-11T05:42:11;103074.16;;;-5.63;100.00
12987;BME280;58897;51.960;5.582;2024-01-11T05:44:40;103069.75;;;-5.55;100.00
12987;BME280;58897;51.960;5.582;2024-01-11T05:47:08;103065.31;;;-5.50;100.00
12987;BME280;58897;51.960;5.582;2024-01-11T05:49:36;103051.38;;;-5.64;100.00
12987;BME280;58897;51.960;5.582;2024-01-11T05:52:07;103062.81;;;-5.70;100.00
12987;BME280;58897;51.960;5.582;2024-01-11T05:54:35;103075.09;;;-5.69;100.00
12987;BME280;58897;51.960;5.582;2024-01-11T05:57:02;103082.06;;;-5.55;100.00
12987;BME280;58897;51.960;5.582;2024-01-11T05:59:30;103070.59;;;-5.50;100.00
12987;BME280;58897;51.960;5.582;2024-01-11T06:01:58;103071.50;;;-5.54;100.00
12987;BME280;58897;51.960;5.582;2024-01-11T06:04:27;103062.78;;;-5.65;100.00
12987;BME280;58897;51.960;5.582;2024-01-11T06:06:54;103071.53;;;-5.55;100.00
12987;BME280;58897;51.960;5.582;2024-01-11T06:09:21;103078.59;;;-5.64;100.00
12987;BME280;58897;51.960;5.582;2024-01-11T06:11:48;103081.22;;;-5.68;100.00
12987;BME280;58897;51.960;5.582;2024-01-11T06:14:15;103092.63;;;-5.62;100.00
12987;BME280;58897;51.960;5.582;2024-01-11T06:16:41;103097.88;;;-5.55;100.00
12987;BME280;58897;51.960;5.582;2024-01-11T06:19:09;103104.03;;;-5.64;100.00
12987;BME280;58897;51.960;5.582;2024-01-11T06:21:35;103120.72;;;-5.67;100.00
12987;BME280;58897;51.960;5.582;2024-01-11T06:24:02;103114.53;;;-5.59;100.00
12987;BME280;58897;51.960;5.582;2024-01-11T06:26:30;103111.97;;;-5.69;100.00
12987;BME280;58897;51.960;5.582;2024-01-11T06:28:56;103111.06;;;-5.65;100.00
12987;BME280;58897;51.960;5.582;2024-01-11T06:31:23;103134.72;;;-5.63;100.00
12987;BME280;58897;51.960;5.582;2024-01-11T06:33:50;103151.41;;;-5.66;100.00
12987;BME280;58897;51.960;5.582;2024-01-11T06:36:17;103165.47;;;-5.56;100.00
12987;BME280;58897;51.960;5.582;2024-01-11T06:38:43;103168.06;;;-5.57;100.00
12987;BME280;58897;51.960;5.582;2024-01-11T06:41:10;103173.34;;;-5.53;100.00
12987;BME280;58897;51.960;5.582;2024-01-11T06:43:37;103154.91;;;-5.57;100.00
12987;BME280;58897;51.960;5.582;2024-01-11T06:46:04;103151.34;;;-5.47;100.00
12987;BME280;58897;51.960;5.582;2024-01-11T06:48:32;103159.31;;;-5.56;100.00
12987;BME280;58897;51.960;5.582;2024-01-11T06:50:58;103144.38;;;-5.53;100.00
12987;BME280;58897;51.960;5.582;2024-01-11T06:53:27;103146.06;;;-5.44;100.00
12987;BME280;58897;51.960;5.582;2024-01-11T06:55:54;103151.34;;;-5.40;100.00
12987;BME280;58897;51.960;5.582;2024-01-11T06:58:21;103157.47;;;-5.38;100.00
12987;BME280;58897;51.960;5.582;2024-01-11T07:00:49;103148.72;;;-5.43;100.00
12987;BME280;58897;51.960;5.582;2024-01-11T07:03:17;103154.00;;;-5.40;100.00
12987;BME280;58897;51.960;5.582;2024-01-11T07:05:43;103156.63;;;-5.46;100.00
12987;BME280;58897;51.960;5.582;2024-01-11T07:08:10;103171.59;;;-5.60;100.00
12987;BME280;58897;51.960;5.582;2024-01-11T07:10:37;103165.44;;;-5.53;100.00
12987;BME280;58897;51.960;5.582;2024-01-11T07:13:04;103179.47;;;-5.45;100.00
12987;BME280;58897;51.960;5.582;2024-01-11T07:15:30;103174.19;;;-5.52;100.00
12987;BME280;58897;51.960;5.582;2024-01-11T07:17:57;103183.81;;;-5.38;100.00
12987;BME280;58897;51.960;5.582;2024-01-11T07:20:24;103176.81;;;-5.37;100.00
12987;BME280;58897;51.960;5.582;2024-01-11T07:22:50;103170.69;;;-5.45;100.00
12987;BME280;58897;51.960;5.582;2024-01-11T07:25:17;103161.88;;;-5.44;100.00
12987;BME280;58897;51.960;5.582;2024-01-11T07:27:43;103161.00;;;-5.43;100.00
12987;BME280;58897;51.960;5.582;2024-01-11T07:30:11;103148.72;;;-5.40;100.00
12987;BME280;58897;51.960;5.582;2024-01-11T07:32:38;103146.88;;;-5.23;100.00
12987;BME280;58897;51.960;5.582;2024-01-11T07:35:05;103145.16;;;-5.34;100.00
12987;BME280;58897;51.960;5.582;2024-01-11T07:37:39;103141.72;;;-5.42;100.00
12987;BME280;58897;51.960;5.582;2024-01-11T07:40:07;103139.00;;;-5.32;100.00
12987;BME280;58897;51.960;5.582;2024-01-11T07:42:38;103125.91;;;-5.47;100.00
12987;BME280;58897;51.960;5.582;2024-01-11T07:45:07;103127.66;;;-5.46;100.00
12987;BME280;58897;51.960;5.582;2024-01-11T07:47:34;103126.75;;;-5.39;100.00
12987;BME280;58897;51.960;5.582;2024-01-11T07:50:00;103135.50;;;-5.35;100.00
12987;BME280;58897;51.960;5.582;2024-01-11T07:52:27;103139.97;;;-5.49;100.00
12987;BME280;58897;51.960;5.582;2024-01-11T07:54:54;103141.69;;;-5.44;100.00
12987;BME280;58897;51.960;5.582;2024-01-11T07:57:20;103149.59;;;-5.44;100.00
12987;BME280;58897;51.960;5.582;2024-01-11T07:59:47;103151.31;;;-5.37;100.00
12987;BME280;58897;51.960;5.582;2024-01-11T08:02:14;103153.13;;;-5.43;100.00
12987;BME280;58897;51.960;5.582;2024-01-11T08:04:42;103149.50;;;-5.26;100.00
12987;BME280;58897;51.960;5.582;2024-01-11T08:07:11;103148.63;;;-5.23;100.00
12987;BME280;58897;51.960;5.582;2024-01-11T08:09:38;103141.56;;;-5.17;100.00
12987;BME280;58897;51.960;5.582;2024-01-11T08:12:11;103138.09;;;-5.26;100.00
12987;BME280;58897;51.960;5.582;2024-01-11T08:14:39;103131.91;;;-5.18;100.00
12987;BME280;58897;51.960;5.582;2024-01-11T08:17:08;103138.13;;;-5.31;100.00
12987;BME280;58897;51.960;5.582;2024-01-11T08:19:35;103147.69;;;-5.12;100.00
12987;BME280;58897;51.960;5.582;2024-01-11T08:22:01;103163.50;;;-5.09;100.00
12987;BME280;58897;51.960;5.582;2024-01-11T08:24:28;103166.03;;;-4.90;100.00
12987;BME280;58897;51.960;5.582;2024-01-11T08:26:55;103161.56;;;-4.81;100.00
12987;BME280;58897;51.960;5.582;2024-01-11T08:29:22;103134.31;;;-4.78;100.00
12987;BME280;58897;51.960;5.582;2024-01-11T08:31:48;103135.91;;;-4.61;100.00
12987;BME280;58897;51.960;5.582;2024-01-11T08:34:15;103132.31;;;-4.49;100.00
12987;BME280;58897;51.960;5.582;2024-01-11T08:36:42;103126.94;;;-4.40;100.00
12987;BME280;58897;51.960;5.582;2024-01-11T08:39:08;103139.31;;;-4.48;100.00
12987;BME280;58897;51.960;5.582;2024-01-11T08:41:37;103156.09;;;-4.52;100.00
12987;BME280;58897;51.960;5.582;2024-01-11T08:44:04;103165.06;;;-4.82;100.00
12987;BME280;58897;51.960;5.582;2024-01-11T08:46:34;103159.72;;;-4.67;100.00
12987;BME280;58897;51.960;5.582;2024-01-11T08:49:01;103171.13;;;-4.66;100.00
12987;BME280;58897;51.960;5.582;2024-01-11T08:51:30;103170.16;;;-4.52;100.00
12987;BME280;58897;51.960;5.582;2024-01-11T08:53:57;103170.09;;;-4.44;100.00
12987;BME280;58897;51.960;5.582;2024-01-11T08:56:24;103174.38;;;-4.31;100.00
12987;BME280;58897;51.960;5.582;2024-01-11T08:58:50;103177.78;;;-4.15;100.00
12987;BME280;58897;51.960;5.582;2024-01-11T09:01:17;103190.91;;;-4.11;100.00
12987;BME280;58897;51.960;5.582;2024-01-11T09:03:46;103196.16;;;-4.06;100.00
12987;BME280;58897;51.960;5.582;2024-01-11T09:06:14;103198.75;;;-4.00;100.00
12987;BME280;58897;51.960;5.582;2024-01-11T09:08:41;103198.56;;;-3.82;100.00
12987;BME280;58897;51.960;5.582;2024-01-11T09:11:08;103199.13;;;-3.54;100.00
12987;BME280;58897;51.960;5.582;2024-01-11T09:13:37;103203.06;;;-3.11;100.00
12987;BME280;58897;51.960;5.582;2024-01-11T09:16:04;103206.16;;;-2.80;100.00
12987;BME280;58897;51.960;5.582;2024-01-11T09:18:30;103207.09;;;-2.25;100.00
12987;BME280;58897;51.960;5.582;2024-01-11T09:20:57;103206.41;;;-1.85;100.00
12987;BME280;58897;51.960;5.582;2024-01-11T09:23:24;103219.03;;;-1.52;100.00
12987;BME280;58897;51.960;5.582;2024-01-11T09:25:50;103216.16;;;-0.97;100.00
12987;BME280;58897;51.960;5.582;2024-01-11T09:28:17;103205.81;;;-0.70;100.00
12987;BME280;58897;51.960;5.582;2024-01-11T09:30:43;103192.09;;;-0.51;100.00
12987;BME280;58897;51.960;5.582;2024-01-11T09:33:10;103190.78;;;-0.34;100.00
12987;BME280;58897;51.960;5.582;2024-01-11T09:35:37;103199.75;;;-0.38;100.00
12987;BME280;58897;51.960;5.582;2024-01-11T09:38:04;103206.63;;;-0.29;100.00
12987;BME280;58897;51.960;5.582;2024-01-11T09:40:31;103203.72;;;-0.19;100.00
12987;BME280;58897;51.960;5.582;2024-01-11T09:42:58;103209.94;;;0.16;100.00
12987;BME280;58897;51.960;5.582;2024-01-11T09:45:24;103215.03;;;0.55;100.00
12987;BME280;58897;51.960;5.582;2024-01-11T09:47:52;103217.91;;;0.80;100.00
12987;BME280;58897;51.960;5.582;2024-01-11T09:50:19;103227.72;;;1.09;100.00
12987;BME280;58897;51.960;5.582;2024-01-11T09:52:49;103216.84;;;1.44;100.00
12987;BME280;58897;51.960;5.582;2024-01-11T09:55:16;103210.09;;;1.88;100.00
12987;BME280;58897;51.960;5.582;2024-01-11T09:57:45;103221.06;;;2.31;100.00
12987;BME280;58897;51.960;5.582;2024-01-11T10:00:22;103227.69;;;2.71;100.00
12987;BME280;58897;51.960;5.582;2024-01-11T10:02:50;103227.47;;;3.23;100.00
12987;BME280;58897;51.960;5.582;2024-01-11T10:05:18;103228.22;;;3.27;98.41
12987;BME280;58897;51.960;5.582;2024-01-11T10:07:45;103230.44;;;3.60;96.57
12987;BME280;58897;51.960;5.582;2024-01-11T10:10:12;103238.91;;;3.93;95.19
12987;BME280;58897;51.960;5.582;2024-01-11T10:12:41;103229.78;;;3.99;92.42
12987;BME280;58897;51.960;5.582;2024-01-11T10:15:09;103227.41;;;4.33;89.08
12987;BME280;58897;51.960;5.582;2024-01-11T10:17:40;103233.44;;;4.58;85.08
12987;BME280;58897;51.960;5.582;2024-01-11T10:20:08;103232.69;;;5.14;81.82
12987;BME280;58897;51.960;5.582;2024-01-11T10:22:37;103236.25;;;5.14;78.99
12987;BME280;58897;51.960;5.582;2024-01-11T10:25:11;103232.06;;;5.46;77.69
12987;BME280;58897;51.960;5.582;2024-01-11T10:27:40;103229.84;;;5.37;75.52
12987;BME280;58897;51.960;5.582;2024-01-11T10:30:12;103229.78;;;5.74;73.06
12987;BME280;58897;51.960;5.582;2024-01-11T10:32:46;103225.50;;;6.42;69.62
12987;BME280;58897;51.960;5.582;2024-01-11T10:35:14;103226.16;;;7.45;66.98
12987;BME280;58897;51.960;5.582;2024-01-11T10:37:40;103227.88;;;7.93;63.83
12987;BME280;58897;51.960;5.582;2024-01-11T10:40:09;103215.28;;;8.83;57.78
12987;BME280;58897;51.960;5.582;2024-01-11T10:42:42;103213.31;;;10.23;54.97
12987;BME280;58897;51.960;5.582;2024-01-11T10:45:16;103204.81;;;10.54;52.08
12987;BME280;58897;51.960;5.582;2024-01-11T10:48:01;103199.22;;;11.56;49.26
12987;BME280;58897;51.960;5.582;2024-01-11T10:50:32;103198.59;;;12.13;47.03
12987;BME280;58897;51.960;5.582;2024-01-11T10:53:36;103197.06;;;12.78;46.80
12987;BME280;58897;51.960;5.582;2024-01-11T10:55:57;103195.16;;;13.14;45.30
12987;BME280;58897;51.960;5.582;2024-01-11T10:58:26;103207.50;;;12.26;46.60
12987;BME280;58897;51.960;5.582;2024-01-11T11:00:54;103206.09;;;12.09;48.41
12987;BME280;58897;51.960;5.582;2024-01-11T11:03:23;103202.09;;;12.02;49.29
12987;BME280;58897;51.960;5.582;2024-01-11T11:05:53;103224.06;;;7.50;56.80
12987;BME280;58897;51.960;5.582;2024-01-11T11:08:20;103233.38;;;4.60;82.18
12987;BME280;58897;51.960;5.582;2024-01-11T11:10:48;103241.16;;;3.14;100.00
12987;BME280;58897;51.960;5.582;2024-01-11T11:13:15;103250.19;;;2.37;100.00
12987;BME280;58897;51.960;5.582;2024-01-11T11:15:45;103256.78;;;1.73;100.00
12987;BME280;58897;51.960;5.582;2024-01-11T11:18:13;103265.09;;;1.63;100.00
12987;BME280;58897;51.960;5.582;2024-01-11T11:20:40;103269.34;;;1.11;100.00
12987;BME280;58897;51.960;5.582;2024-01-11T11:23:11;103265.81;;;1.11;100.00
12987;BME280;58897;51.960;5.582;2024-01-11T11:25:40;103272.16;;;1.07;100.00
12987;BME280;58897;51.960;5.582;2024-01-11T11:28:07;103267.22;;;0.92;100.00
12987;BME280;58897;51.960;5.582;2024-01-11T11:30:38;103262.75;;;0.61;100.00
12987;BME280;58897;51.960;5.582;2024-01-11T11:33:18;103262.41;;;0.75;100.00
12987;BME280;58897;51.960;5.582;2024-01-11T11:35:46;103257.66;;;0.54;100.00
12987;BME280;58897;51.960;5.582;2024-01-11T11:38:26;103251.50;;;0.52;100.00
12987;BME280;58897;51.960;5.582;2024-01-11T11:40:56;103247.22;;;0.46;100.00
12987;BME280;58897;51.960;5.582;2024-01-11T11:43:24;103244.56;;;0.46;100.00
12987;BME280;58897;51.960;5.582;2024-01-11T11:45:51;103242.66;;;0.51;100.00
12987;BME280;58897;51.960;5.582;2024-01-11T11:51:14;103231.88;;;0.56;100.00
12987;BME280;58897;51.960;5.582;2024-01-11T11:53:46;103231.81;;;0.59;100.00
12987;BME280;58897;51.960;5.582;2024-01-11T11:56:14;103236.41;;;0.52;100.00
12987;BME280;58897;51.960;5.582;2024-01-11T11:58:44;103222.34;;;0.49;100.00
12987;BME280;58897;51.960;5.582;2024-01-11T12:01:13;103233.75;;;0.52;100.00
12987;BME280;58897;51.960;5.582;2024-01-11T12:03:41;103231.75;;;0.28;100.00
12987;BME280;58897;51.960;5.582;2024-01-11T12:06:10;103228.69;;;0.43;100.00
12987;BME280;58897;51.960;5.582;2024-01-11T12:08:37;103220.72;;;0.43;100.00
12987;BME280;58897;51.960;5.582;2024-01-11T12:11:08;103221.50;;;0.47;100.00
12987;BME280;58897;51.960;5.582;2024-01-11T12:13:35;103212.22;;;0.29;100.00
12987;BME280;58897;51.960;5.582;2024-01-11T12:16:02;103206.75;;;0.35;100.00
12987;BME280;58897;51.960;5.582;2024-01-11T12:18:29;103209.41;;;0.35;100.00
12987;BME280;58897;51.960;5.582;2024-01-11T12:20:56;103201.28;;;0.41;100.00
12987;BME280;58897;51.960;5.582;2024-01-11T12:23:24;103204.78;;;0.42;100.00
12987;BME280;58897;51.960;5.582;2024-01-11T12:25:52;103205.16;;;0.28;100.00
12987;BME280;58897;51.960;5.582;2024-01-11T12:28:18;103196.97;;;0.36;100.00
12987;BME280;58897;51.960;5.582;2024-01-11T12:30:47;103198.84;;;0.32;100.00
12987;BME280;58897;51.960;5.582;2024-01-11T12:33:15;103197.59;;;0.45;100.00
12987;BME280;58897;51.960;5.582;2024-01-11T12:35:43;103195.59;;;0.53;100.00
12987;BME280;58897;51.960;5.582;2024-01-11T12:38:10;103195.69;;;0.50;100.00
12987;BME280;58897;51.960;5.582;2024-01-11T12:40:37;103195.06;;;0.41;100.00
12987;BME280;58897;51.960;5.582;2024-01-11T12:43:05;103192.06;;;0.53;100.00
12987;BME280;58897;51.960;5.582;2024-01-11T12:45:32;103194.91;;;0.47;100.00
12987;BME280;58897;51.960;5.582;2024-01-11T12:47:59;103199.13;;;0.54;100.00